Time;durP1;ratioP1;P1;durP2;ratioP2;P2;SDS_P1;SDS_P2;PMS_P1;PMS_P2;Temp;Humidity;BMP_temperature;BMP_pressure;BME280_temperature;BME280_humidity;BME280_pressure;Samples;Min_cycle;Max_cycle;Signal;HPM_P1;HPM_P2
2022/12/13 00:00:55;;;;;;;;;;;;;;;-3.55;67.89;94914.83;1736349;83;20386;-67
2022/12/13 00:03:24;;;;;;;;;;;;;;;-3.59;67.14;94916.00;1737057;82;20401;-67
2022/12/13 00:05:50;;;;;;;;;;;;;;;-3.57;66.44;94911.76;1736881;82;20214;-67
2022/12/13 00:08:16;;;;;;;;;;;;;;;-3.62;66.10;94909.06;1736649;82;20390;-68
2022/12/13 00:10:43;;;;;;;;;;;;;;;-3.62;66.82;94893.59;1715652;83;20105;-67
2022/12/13 00:13:09;;;;;;;;;;;;;;;-3.63;67.09;94901.28;1736948;83;20109;-67
2022/12/13 00:15:35;;;;;;;;;;;;;;;-3.71;66.56;94902.38;1742170;82;20120;-67
2022/12/13 00:18:02;;;;;;;;;;;;;;;-3.65;67.22;94918.02;1742776;82;20425;-67
2022/12/13 00:20:28;;;;;;;;;;;;;;;-3.70;67.25;94912.75;1742993;82;20413;-67
2022/12/13 00:22:56;;;;;;;;;;;;;;;-3.72;67.32;94924.72;1742938;82;20108;-67
2022/12/13 00:25:22;;;;;;;;;;;;;;;-3.70;67.94;94913.17;1743040;82;20128;-67
2022/12/13 00:27:49;;;;;;;;;;;;;;;-3.65;67.83;94915.44;1742726;82;20129;-67
2022/12/13 00:30:15;;;;;;;;;;;;;;;-3.64;67.25;94921.04;1742898;82;20104;-67
2022/12/13 00:32:42;;;;;;;;;;;;;;;-3.58;67.75;94920.31;1743140;82;20406;-67
2022/12/13 00:35:08;;;;;;;;;;;;;;;-3.55;68.04;94921.70;1743183;82;20119;-67
2022/12/13 00:37:34;;;;;;;;;;;;;;;-3.61;67.16;94917.66;1743146;82;20116;-67
2022/12/13 00:40:01;;;;;;;;;;;;;;;-3.62;66.92;94925.82;1743174;82;20132;-67
2022/12/13 00:42:27;;;;;;;;;;;;;;;-3.64;66.77;94929.20;1743137;82;20100;-67
2022/12/13 00:44:53;;;;;;;;;;;;;;;-3.67;66.70;94936.86;1742694;82;20144;-67
2022/12/13 00:47:21;;;;;;;;;;;;;;;-3.67;67.37;94939.44;1743127;82;20112;-67
2022/12/13 00:49:47;;;;;;;;;;;;;;;-3.74;67.18;94945.72;1742790;82;20136;-67
2022/12/13 00:52:13;;;;;;;;;;;;;;;-3.74;67.35;94947.00;1696213;82;20176;-67
2022/12/13 00:54:40;;;;;;;;;;;;;;;-3.79;67.18;94950.30;1742611;82;20108;-67
2022/12/13 00:57:07;;;;;;;;;;;;;;;-3.79;67.63;94960.61;1742899;82;20323;-67
2022/12/13 00:59:52;;;;;;;;;;;;;;;-3.79;67.94;94960.61;1743051;82;20135;-67
2022/12/13 01:02:19;;;;;;;;;;;;;;;-3.89;67.44;94969.81;1742977;82;20092;-67
2022/12/13 01:04:50;;;;;;;;;;;;;;;-3.96;67.79;94973.92;1742660;82;20112;-67
2022/12/13 01:07:17;;;;;;;;;;;;;;;-3.96;67.52;94968.77;1743149;82;20445;-67
2022/12/13 01:09:43;;;;;;;;;;;;;;;-3.96;67.46;94973.92;1743079;82;20096;-67
2022/12/13 01:12:10;;;;;;;;;;;;;;;-3.93;67.32;94975.31;1743135;82;20132;-67
2022/12/13 01:14:38;;;;;;;;;;;;;;;-3.95;66.77;94974.39;1743664;82;20088;-67
2022/12/13 01:17:06;;;;;;;;;;;;;;;-3.96;66.56;94973.92;1744487;82;20108;-68
2022/12/13 01:19:33;;;;;;;;;;;;;;;-3.93;67.22;94977.89;1744553;82;20379;-67
2022/12/13 01:22:02;;;;;;;;;;;;;;;-3.92;66.48;94983.91;1744883;82;20155;-67
2022/12/13 01:24:29;;;;;;;;;;;;;;;-3.93;66.76;94973.16;1744468;82;20088;-67
2022/12/13 01:26:56;;;;;;;;;;;;;;;-3.99;66.64;94974.27;1745026;82;20092;-67
2022/12/13 01:29:23;;;;;;;;;;;;;;;-4.04;66.79;94970.70;1744715;82;20124;-67
2022/12/13 01:31:50;;;;;;;;;;;;;;;-4.02;66.78;94972.48;1744939;82;20100;-67
2022/12/13 01:34:19;;;;;;;;;;;;;;;-3.97;66.67;94973.89;1745118;82;20397;-67
2022/12/13 01:36:46;;;;;;;;;;;;;;;-3.97;67.02;94973.47;1744922;82;20417;-67
2022/12/13 01:39:16;;;;;;;;;;;;;;;-3.94;66.67;94967.53;1744795;82;20112;-67
2022/12/13 01:41:45;;;;;;;;;;;;;;;-4.03;66.96;94973.33;1745147;82;20132;-67
2022/12/13 01:44:49;;;;;;;;;;;;;;;-4.04;66.95;94970.70;1744967;82;20402;-67
2022/12/13 01:47:18;;;;;;;;;;;;;;;-4.08;66.78;94967.56;1744687;82;20112;-67
2022/12/13 01:49:44;;;;;;;;;;;;;;;-4.06;66.66;94977.08;1745588;82;20127;-67
2022/12/13 01:52:12;;;;;;;;;;;;;;;-4.02;66.89;94977.63;1745213;82;20120;-67
2022/12/13 01:54:42;;;;;;;;;;;;;;;-4.02;66.79;94980.63;1744987;82;20108;-67
2022/12/13 01:57:11;;;;;;;;;;;;;;;-4.04;66.74;94979.71;1745113;82;20108;-67
2022/12/13 01:59:39;;;;;;;;;;;;;;;-4.00;66.56;94999.16;1745205;82;20096;-67
2022/12/13 02:02:06;;;;;;;;;;;;;;;-4.05;66.68;94996.88;1745034;82;20417;-67
2022/12/13 02:05:05;;;;;;;;;;;;;;;-4.04;66.95;94996.04;1745048;82;20137;-67
2022/12/13 02:07:33;;;;;;;;;;;;;;;-4.05;67.08;94993.02;1745040;82;20401;-67
2022/12/13 02:10:02;;;;;;;;;;;;;;;-4.08;67.35;94992.94;1744775;82;20409;-67
2022/12/13 02:12:31;;;;;;;;;;;;;;;-4.06;67.54;94999.41;1744966;82;20100;-67
2022/12/13 02:15:10;;;;;;;;;;;;;;;-4.12;67.44;94996.25;1741722;82;20414;-67
2022/12/13 02:17:57;;;;;;;;;;;;;;;-4.14;67.46;94998.77;1736805;82;20096;-67
2022/12/13 02:20:36;;;;;;;;;;;;;;;-4.21;68.78;94997.27;1736900;82;20434;-67
2022/12/13 02:23:06;;;;;;;;;;;;;;;-4.20;68.38;95000.33;1736381;82;20156;-67
2022/12/13 02:25:57;;;;;;;;;;;;;;;-4.23;68.67;94995.09;1736315;82;20125;-67
2022/12/13 02:28:45;;;;;;;;;;;;;;;-4.25;68.64;95007.92;1736478;82;20144;-67
2022/12/13 02:31:14;;;;;;;;;;;;;;;-4.32;69.00;94995.70;1737043;83;20145;-67
2022/12/13 02:33:50;;;;;;;;;;;;;;;-4.32;69.08;95008.99;1736862;82;20123;-67
2022/12/13 02:36:28;;;;;;;;;;;;;;;-4.35;68.91;95007.20;1736883;82;20144;-67
2022/12/13 02:39:20;;;;;;;;;;;;;;;-4.37;69.24;95003.28;1736520;83;20104;-67
2022/12/13 02:41:52;;;;;;;;;;;;;;;-4.42;69.37;95003.56;1736870;82;20101;-67
2022/12/13 02:44:31;;;;;;;;;;;;;;;-4.44;69.78;95008.22;1736652;83;20136;-68
2022/12/13 02:47:03;;;;;;;;;;;;;;;-4.48;70.20;95007.27;1736269;82;20105;-68
2022/12/13 02:49:33;;;;;;;;;;;;;;;-4.47;70.21;95000.41;1734452;82;20112;-68
2022/12/13 02:52:00;;;;;;;;;;;;;;;-4.50;70.53;94999.04;1736943;82;20386;-67
2022/12/13 02:54:26;;;;;;;;;;;;;;;-4.50;70.82;95005.05;1737005;82;20100;-67
2022/12/13 02:56:55;;;;;;;;;;;;;;;-4.52;70.38;95008.41;1736838;82;20116;-67
2022/12/13 02:59:25;;;;;;;;;;;;;;;-4.49;70.45;95008.50;1736213;82;20100;-67
2022/12/13 03:01:55;;;;;;;;;;;;;;;-4.54;70.64;95016.08;1736474;82;20105;-67
2022/12/13 03:06:28;;;;;;;;;;;;;;;-4.54;70.73;95019.08;1735241;82;20128;-67
2022/12/13 03:07:15;;;;;;;;;;;;;;;-4.58;70.83;95012.55;1733860;83;20142;-67
2022/12/13 03:09:56;;;;;;;;;;;;;;;-4.58;70.92;95015.55;1736155;82;20426;-67
2022/12/13 03:15:42;;;;;;;;;;;;;;;-4.63;71.43;95023.55;1736933;82;20186;-67
2022/12/13 03:18:14;;;;;;;;;;;;;;;-4.65;71.32;95020.92;1736844;83;20113;-67
2022/12/13 03:20:50;;;;;;;;;;;;;;;-4.64;71.57;95030.80;1736940;83;20097;-67
2022/12/13 03:23:17;;;;;;;;;;;;;;;-4.66;71.51;95032.45;1732300;82;20089;-66
2022/12/13 03:25:45;;;;;;;;;;;;;;;-4.64;71.22;95034.66;1736702;82;20131;-66
2022/12/13 03:28:12;;;;;;;;;;;;;;;-4.68;71.50;95032.42;1736836;83;20104;-67
2022/12/13 03:30:39;;;;;;;;;;;;;;;-4.66;71.40;95037.20;1736650;82;20570;-67
2022/12/13 03:33:05;;;;;;;;;;;;;;;-4.61;71.32;95039.89;1737167;82;20140;-67
2022/12/13 03:35:32;;;;;;;;;;;;;;;-4.60;71.35;95036.09;1736770;83;20108;-67
2022/12/13 03:38:00;;;;;;;;;;;;;;;-4.59;71.21;95036.95;1736554;83;20101;-66
2022/12/13 03:40:28;;;;;;;;;;;;;;;-4.64;71.38;95042.38;1736711;82;20100;-67
2022/12/13 03:42:54;;;;;;;;;;;;;;;-4.65;71.57;95043.22;1736998;82;20120;-67
2022/12/13 03:45:20;;;;;;;;;;;;;;;-4.66;71.76;95053.04;1736760;83;20403;-67
2022/12/13 03:47:47;;;;;;;;;;;;;;;-4.70;71.79;95049.51;1736986;82;20100;-67
2022/12/13 03:50:13;;;;;;;;;;;;;;;-4.68;71.83;95056.00;1736879;82;20100;-66
2022/12/13 03:52:39;;;;;;;;;;;;;;;-4.65;71.88;95056.09;1736810;82;20386;-66
2022/12/13 03:55:06;;;;;;;;;;;;;;;-4.64;71.87;95061.69;1736817;83;20152;-66
2022/12/13 03:57:33;;;;;;;;;;;;;;;-4.64;71.77;95061.27;1736949;82;20104;-66
2022/12/13 03:59:59;;;;;;;;;;;;;;;-4.67;71.79;95063.75;1736784;82;20137;-66
2022/12/13 04:02:26;;;;;;;;;;;;;;;-4.66;71.64;95065.52;1736944;82;20100;-66
2022/12/13 04:04:52;;;;;;;;;;;;;;;-4.63;71.77;95063.45;1736469;82;20089;-66
2022/12/13 04:07:19;;;;;;;;;;;;;;;-4.61;72.07;95060.48;1736788;82;20096;-66
2022/12/13 04:09:45;;;;;;;;;;;;;;;-4.69;72.11;95068.39;1737064;82;20096;-67
2022/12/13 04:14:56;;;;;;;;;;;;;;;-4.86;72.44;95069.18;1736996;82;20108;-66
2022/12/13 04:17:23;;;;;;;;;;;;;;;-4.81;72.56;95076.63;1736993;82;20125;-66
2022/12/13 04:19:49;;;;;;;;;;;;;;;-4.82;72.36;95078.30;1736946;82;20113;-67
2022/12/13 04:22:16;;;;;;;;;;;;;;;-4.80;72.53;95075.80;1737334;82;20108;-66
2022/12/13 04:24:42;;;;;;;;;;;;;;;-4.81;72.41;95074.92;1736836;82;20397;-66
2022/12/13 04:27:08;;;;;;;;;;;;;;;-4.84;72.46;95073.55;1736276;83;20394;-66
2022/12/13 04:29:34;;;;;;;;;;;;;;;-4.91;72.61;95076.75;1736954;82;20112;-67
2022/12/13 04:32:03;;;;;;;;;;;;;;;-4.98;72.85;95070.94;1736485;83;20133;-67
2022/12/13 04:34:30;;;;;;;;;;;;;;;-4.95;73.18;95076.17;1736339;82;20113;-67
2022/12/13 04:36:56;;;;;;;;;;;;;;;-4.96;73.71;95078.69;1737052;82;20104;-66
2022/12/13 04:39:22;;;;;;;;;;;;;;;-5.10;74.29;95084.69;1736861;82;20100;-67
2022/12/13 04:41:51;;;;;;;;;;;;;;;-5.08;73.96;95089.48;1736242;83;20445;-66
2022/12/13 04:44:18;;;;;;;;;;;;;;;-5.02;74.55;95088.38;1736840;82;20105;-67
2022/12/13 04:46:44;;;;;;;;;;;;;;;-5.13;74.67;95091.89;1736741;82;20128;-67
2022/12/13 04:49:10;;;;;;;;;;;;;;;-5.17;74.41;95093.89;1736859;82;20088;-67
2022/12/13 04:51:36;;;;;;;;;;;;;;;-5.16;74.34;95098.23;1736930;82;20108;-67
2022/12/13 04:54:03;;;;;;;;;;;;;;;-5.06;74.64;95103.27;1736844;82;20088;-67
2022/12/13 04:56:30;;;;;;;;;;;;;;;-4.98;74.21;95103.52;1736327;82;20112;-67
2022/12/13 04:58:56;;;;;;;;;;;;;;;-5.07;73.86;95101.50;1736808;82;20128;-67
2022/12/13 05:01:22;;;;;;;;;;;;;;;-5.05;73.81;95097.29;1736457;82;20112;-67
2022/12/13 05:03:49;;;;;;;;;;;;;;;-5.12;73.32;95106.91;1736813;83;20386;-67
2022/12/13 05:06:16;;;;;;;;;;;;;;;-5.06;73.79;95108.41;1736834;82;20088;-67
2022/12/13 05:08:42;;;;;;;;;;;;;;;-5.11;73.42;95109.55;1736831;83;20145;-67
2022/12/13 05:11:09;;;;;;;;;;;;;;;-5.17;73.36;95111.03;1736701;83;20112;-67
2022/12/13 05:13:36;;;;;;;;;;;;;;;-5.25;73.32;95110.77;1736815;83;20104;-67
2022/12/13 05:16:04;;;;;;;;;;;;;;;-5.47;74.63;95110.45;1736434;82;20146;-67
2022/12/13 05:18:32;;;;;;;;;;;;;;;-5.55;74.73;95111.88;1736963;83;20426;-67
2022/12/13 05:21:03;;;;;;;;;;;;;;;-5.67;74.59;95124.78;1737530;82;20112;-67
2022/12/13 05:23:30;;;;;;;;;;;;;;;-5.76;74.85;95115.87;1737247;83;20089;-66
2022/12/13 05:25:57;;;;;;;;;;;;;;;-5.82;74.33;95123.34;1736764;82;20089;-67
2022/12/13 05:28:25;;;;;;;;;;;;;;;-5.83;74.77;95121.61;1737236;83;20108;-66
2022/12/13 05:30:53;;;;;;;;;;;;;;;-5.81;74.70;95124.70;1737196;82;20100;-66
2022/12/13 05:33:21;;;;;;;;;;;;;;;-5.93;74.44;95124.25;1737278;82;20107;-66
2022/12/13 05:35:48;;;;;;;;;;;;;;;-6.03;74.52;95124.77;1737442;82;20113;-66
2022/12/13 05:38:15;;;;;;;;;;;;;;;-6.05;74.51;95136.26;1737175;82;20104;-66
2022/12/13 05:40:41;;;;;;;;;;;;;;;-6.07;74.81;95128.93;1737141;82;20153;-67
2022/12/13 05:43:10;;;;;;;;;;;;;;;-6.14;74.67;95129.10;1737343;82;20109;-67
2022/12/13 05:45:36;;;;;;;;;;;;;;;-6.19;74.78;95134.89;1737114;83;20109;-66
2022/12/13 05:48:03;;;;;;;;;;;;;;;-6.15;75.28;95127.37;1737217;83;20164;-67
2022/12/13 05:50:29;;;;;;;;;;;;;;;-6.18;74.88;95132.36;1737288;82;20113;-66
2022/12/13 05:52:55;;;;;;;;;;;;;;;-6.28;74.55;95140.54;1737124;83;20124;-67
2022/12/13 05:55:22;;;;;;;;;;;;;;;-6.38;74.66;95136.74;1737359;82;20393;-67
2022/12/13 05:57:48;;;;;;;;;;;;;;;-6.31;75.76;95141.71;1737011;82;20112;-67
2022/12/13 06:00:15;;;;;;;;;;;;;;;-6.27;76.01;95145.26;1736908;83;20135;-67
2022/12/13 06:02:43;;;;;;;;;;;;;;;-6.29;76.00;95137.94;1736351;82;20137;-69
2022/12/13 06:05:10;;;;;;;;;;;;;;;-6.34;75.47;95145.04;1736723;82;20449;-66
2022/12/13 06:07:37;;;;;;;;;;;;;;;-6.36;75.35;95152.22;1737411;82;20092;-67
2022/12/13 06:10:06;;;;;;;;;;;;;;;-6.38;75.83;95157.69;1736461;82;20123;-68
2022/12/13 06:12:36;;;;;;;;;;;;;;;-6.37;75.62;95148.78;1737132;83;20395;-66
2022/12/13 06:15:02;;;;;;;;;;;;;;;-6.46;75.59;95159.09;1736895;82;20450;-66
2022/12/13 06:17:33;;;;;;;;;;;;;;;-6.42;75.76;95161.84;1736846;82;20438;-65
2022/12/13 06:20:00;;;;;;;;;;;;;;;-6.50;75.51;95172.23;1736600;82;20092;-65
2022/12/13 06:22:27;;;;;;;;;;;;;;;-6.63;75.87;95178.54;1736671;83;20100;-64
2022/12/13 06:24:54;;;;;;;;;;;;;;;-6.71;75.58;95191.89;1736550;82;20138;-66
2022/12/13 06:27:20;;;;;;;;;;;;;;;-6.79;76.64;95189.89;1736315;83;20089;-65
2022/12/13 06:29:47;;;;;;;;;;;;;;;-6.75;77.13;95201.17;1736197;83;20199;-67
2022/12/13 06:32:13;;;;;;;;;;;;;;;-6.66;77.94;95204.08;1736648;83;20100;-65
2022/12/13 06:34:39;;;;;;;;;;;;;;;-6.53;77.48;95206.73;1736706;82;20430;-66
2022/12/13 06:37:07;;;;;;;;;;;;;;;-6.42;77.54;95207.18;1736509;82;20149;-66
2022/12/13 06:39:34;;;;;;;;;;;;;;;-6.38;77.05;95210.31;1736511;83;20108;-66
2022/12/13 06:42:04;;;;;;;;;;;;;;;-6.49;76.69;95211.18;1736018;83;20445;-68
2022/12/13 06:44:30;;;;;;;;;;;;;;;-6.57;76.53;95214.73;1736875;82;20100;-67
2022/12/13 06:46:58;;;;;;;;;;;;;;;-6.61;77.87;95216.69;1736237;82;20500;-67
2022/12/13 06:49:24;;;;;;;;;;;;;;;-6.51;78.25;95215.37;1715291;83;20120;-66
2022/12/13 06:51:50;;;;;;;;;;;;;;;-6.38;77.31;95212.47;1735948;83;20105;-65
2022/12/13 06:54:17;;;;;;;;;;;;;;;-6.44;76.46;95218.66;1736600;82;20113;-63
2022/12/13 06:56:43;;;;;;;;;;;;;;;-6.42;76.63;95215.75;1736414;83;20166;-63
2022/12/13 06:59:09;;;;;;;;;;;;;;;-6.41;77.75;95216.20;1736899;82;20132;-64
2022/12/13 07:01:35;;;;;;;;;;;;;;;-6.44;77.46;95219.07;1715191;83;20139;-66
2022/12/13 07:04:02;;;;;;;;;;;;;;;-6.36;77.71;95216.39;1735868;82;20128;-64
2022/12/13 07:06:28;;;;;;;;;;;;;;;-6.27;77.34;95223.56;1735834;82;20159;-66
2022/12/13 07:08:56;;;;;;;;;;;;;;;-6.27;77.06;95224.47;1735975;83;20128;-66
2022/12/13 07:11:25;;;;;;;;;;;;;;;-6.21;77.35;95223.82;1735960;83;20135;-65
2022/12/13 07:13:52;;;;;;;;;;;;;;;-6.05;77.57;95221.42;1736489;82;20104;-69
2022/12/13 07:16:19;;;;;;;;;;;;;;;-5.91;77.05;95222.80;1736819;82;20096;-66
2022/12/13 07:18:46;;;;;;;;;;;;;;;-5.78;77.00;95217.72;1736538;83;20207;-65
2022/12/13 07:21:13;;;;;;;;;;;;;;;-5.59;77.19;95224.02;1736866;83;20487;-67
2022/12/13 07:23:40;;;;;;;;;;;;;;;-5.43;76.40;95221.58;1736501;83;20172;-65
2022/12/13 07:26:07;;;;;;;;;;;;;;;-5.36;75.99;95236.83;1736113;82;20108;-65
2022/12/13 07:28:36;;;;;;;;;;;;;;;-5.37;74.79;95236.34;1736298;82;20097;-68
2022/12/13 07:31:05;;;;;;;;;;;;;;;-5.40;75.16;95231.97;1736773;82;20089;-67
2022/12/13 07:33:32;;;;;;;;;;;;;;;-5.37;75.61;95224.77;1737365;83;20086;-65
2022/12/13 07:36:13;;;;;;;;;;;;;;;-5.19;76.03;95227.12;1737222;82;20104;-65
2022/12/13 07:38:39;;;;;;;;;;;;;;;-5.03;75.86;95230.29;1736911;83;20144;-64
2022/12/13 07:41:06;;;;;;;;;;;;;;;-4.88;75.23;95232.52;1736468;82;20136;-69
2022/12/13 07:43:33;;;;;;;;;;;;;;;-4.72;74.74;95228.75;1737008;83;20093;-65
2022/12/13 07:46:01;;;;;;;;;;;;;;;-4.60;73.93;95230.45;1736187;83;20180;-67
2022/12/13 07:48:28;;;;;;;;;;;;;;;-4.48;73.60;95228.70;1736395;82;20104;-67
2022/12/13 07:51:00;;;;;;;;;;;;;;;-4.32;73.10;95238.21;1736965;83;20132;-67
2022/12/13 07:53:27;;;;;;;;;;;;;;;-4.29;73.32;95234.02;1713356;83;20152;-68
2022/12/13 07:55:54;;;;;;;;;;;;;;;-4.20;72.88;95236.03;1736460;82;20399;-65
2022/12/13 07:58:20;;;;;;;;;;;;;;;-4.04;73.52;95233.09;1737181;82;20109;-64
2022/12/13 08:00:46;;;;;;;;;;;;;;;-3.94;71.90;95236.84;1736986;82;20121;-62
2022/12/13 08:03:14;;;;;;;;;;;;;;;-3.99;70.84;95231.95;1736910;83;20156;-66
2022/12/13 08:05:40;;;;;;;;;;;;;;;-3.92;71.54;95233.48;1736226;83;20181;-64
2022/12/13 08:08:08;;;;;;;;;;;;;;;-3.77;72.15;95234.78;1736317;82;20166;-64
2022/12/13 08:10:35;;;;;;;;;;;;;;;-3.62;72.37;95238.23;1736606;83;20138;-65
2022/12/13 08:13:02;;;;;;;;;;;;;;;-3.55;71.69;95237.59;1736873;82;20151;-65
2022/12/13 08:15:28;;;;;;;;;;;;;;;-3.44;72.10;95240.47;1736798;82;20409;-73
2022/12/13 08:17:56;;;;;;;;;;;;;;;-3.35;71.30;95238.14;1741110;82;20159;-67
2022/12/13 08:20:22;;;;;;;;;;;;;;;-3.30;70.48;95238.75;1741105;82;20200;-67
2022/12/13 08:22:56;;;;;;;;;;;;;;;-3.33;69.61;95247.67;1734334;83;20468;-66
2022/12/13 08:25:22;;;;;;;;;;;;;;;-3.32;69.38;95246.86;1734491;83;20175;-70
2022/12/13 08:27:48;;;;;;;;;;;;;;;-3.38;68.56;95259.98;1737814;82;20104;-67
2022/12/13 08:30:15;;;;;;;;;;;;;;;-3.35;69.47;95254.91;1737880;83;20155;-71
2022/12/13 08:32:41;;;;;;;;;;;;;;;-3.21;69.83;95254.89;1737986;83;20100;-71
2022/12/13 08:35:08;;;;;;;;;;;;;;;-3.23;69.01;95251.81;1738591;83;20163;-73
2022/12/13 08:37:35;;;;;;;;;;;;;;;-3.18;69.82;95250.23;1738147;83;20108;-68
2022/12/13 08:40:02;;;;;;;;;;;;;;;-3.04;70.19;95252.80;1738068;83;20149;-70
2022/12/13 08:42:29;;;;;;;;;;;;;;;-2.88;70.07;95252.79;1737709;83;20121;-71
2022/12/13 08:44:55;;;;;;;;;;;;;;;-2.74;70.41;95244.14;1738081;83;20158;-67
2022/12/13 08:47:24;;;;;;;;;;;;;;;-2.64;69.61;95246.13;1738313;83;20397;-74
2022/12/13 08:49:53;;;;;;;;;;;;;;;-2.56;69.66;95243.31;1738372;83;20097;-71
2022/12/13 08:52:21;;;;;;;;;;;;;;;-2.43;69.14;95244.50;1737920;83;20385;-69
2022/12/13 08:54:48;;;;;;;;;;;;;;;-2.37;68.31;95242.06;1738317;83;20484;-69
2022/12/13 08:57:14;;;;;;;;;;;;;;;-2.36;67.79;95240.38;1738550;83;20096;-70
2022/12/13 08:59:41;;;;;;;;;;;;;;;-2.36;67.95;95239.95;1737940;83;20472;-69
2022/12/13 09:02:12;;;;;;;;;;;;;;;-2.31;68.63;95235.77;1713268;83;20179;-68
2022/12/13 09:04:38;;;;;;;;;;;;;;;-2.17;68.16;95238.67;1737649;83;20211;-73
2022/12/13 09:07:05;;;;;;;;;;;;;;;-2.00;68.83;95228.32;1738126;83;20128;-67
2022/12/13 09:09:31;;;;;;;;;;;;;;;-1.84;68.04;95233.45;1738174;83;20105;-69
2022/12/13 09:11:57;;;;;;;;;;;;;;;-1.88;66.36;95238.09;1736955;82;20155;-74
2022/12/13 09:14:24;;;;;;;;;;;;;;;-1.81;67.34;95241.27;1734146;83;20465;-71
2022/12/13 09:16:50;;;;;;;;;;;;;;;-1.67;66.86;95234.23;1731453;82;20153;-73
2022/12/13 09:19:17;;;;;;;;;;;;;;;-1.64;65.40;95235.59;1724121;83;20124;-68
2022/12/13 09:21:43;;;;;;;;;;;;;;;-1.59;66.26;95230.09;1723769;83;20121;-70
2022/12/13 09:24:09;;;;;;;;;;;;;;;-1.59;65.52;95229.70;1723978;83;20130;-69
2022/12/13 09:26:35;;;;;;;;;;;;;;;-1.56;65.93;95229.77;1723674;83;20160;-72
2022/12/13 09:29:01;;;;;;;;;;;;;;;-1.54;65.32;95228.09;1723098;83;20450;-71
2022/12/13 09:31:28;;;;;;;;;;;;;;;-1.52;65.12;95226.81;1723713;83;20164;-72
2022/12/13 09:33:54;;;;;;;;;;;;;;;-1.60;64.41;95224.48;1723986;83;20149;-71
2022/12/13 09:36:20;;;;;;;;;;;;;;;-1.66;64.25;95223.94;1724234;83;20126;-71
2022/12/13 09:38:47;;;;;;;;;;;;;;;-1.60;64.23;95221.89;1723886;83;20435;-71
2022/12/13 09:41:20;;;;;;;;;;;;;;;-1.50;65.46;95217.38;1723985;83;20152;-69
2022/12/13 09:43:49;;;;;;;;;;;;;;;-1.13;65.61;95212.97;1723657;83;20240;-68
2022/12/13 09:46:28;;;;;;;;;;;;;;;-0.70;61.83;95211.19;1723813;83;20581;-74
2022/12/13 09:48:55;;;;;;;;;;;;;;;-0.39;62.88;95208.71;1719196;83;20408;-73
2022/12/13 09:51:22;;;;;;;;;;;;;;;0.03;61.75;95197.73;1720564;83;20192;-74
2022/12/13 09:53:51;;;;;;;;;;;;;;;0.36;60.95;95194.32;1720895;83;20408;-72
2022/12/13 09:56:19;;;;;;;;;;;;;;;0.71;61.98;95197.82;1722339;83;20137;-70
2022/12/13 09:59:04;;;;;;;;;;;;;;;1.04;58.32;95189.99;1730632;83;20167;-66
2022/12/13 10:01:30;;;;;;;;;;;;;;;1.23;58.22;95189.75;1731132;83;20386;-70
2022/12/13 10:03:58;;;;;;;;;;;;;;;1.48;58.19;95185.23;1730963;83;20101;-69
2022/12/13 10:06:27;;;;;;;;;;;;;;;1.71;56.02;95180.28;1731143;83;20430;-74
2022/12/13 10:08:56;;;;;;;;;;;;;;;1.94;55.50;95169.16;1731104;83;20140;-75
2022/12/13 10:11:22;;;;;;;;;;;;;;;2.19;53.59;95170.20;1730864;83;20138;-67
2022/12/13 10:13:58;;;;;;;;;;;;;;;2.34;52.10;95164.23;1723556;83;20108;-69
2022/12/13 10:16:37;;;;;;;;;;;;;;;2.49;53.06;95169.53;1731137;83;20152;-72
2022/12/13 10:19:20;;;;;;;;;;;;;;;2.76;51.43;95160.98;1730714;83;20109;-73
2022/12/13 10:21:47;;;;;;;;;;;;;;;2.87;52.69;95159.72;1730928;83;20109;-73
2022/12/13 10:24:29;;;;;;;;;;;;;;;3.07;50.65;95161.09;1731178;83;20136;-72
2022/12/13 10:26:56;;;;;;;;;;;;;;;3.24;50.84;95156.81;1731036;83;20109;-72
2022/12/13 10:29:22;;;;;;;;;;;;;;;3.47;50.27;95147.73;1729937;83;20123;-73
2022/12/13 10:31:51;;;;;;;;;;;;;;;3.75;49.37;95146.45;1730918;83;20100;-73
2022/12/13 10:34:27;;;;;;;;;;;;;;;3.76;47.34;95145.59;1731319;83;20129;-73
2022/12/13 10:36:54;;;;;;;;;;;;;;;3.78;45.99;95145.58;1731145;83;20112;-70
2022/12/13 10:39:41;;;;;;;;;;;;;;;3.95;47.16;95143.84;1731136;83;20144;-71
2022/12/13 10:42:17;;;;;;;;;;;;;;;4.12;48.93;95145.14;1730663;83;20477;-72
2022/12/13 10:44:43;;;;;;;;;;;;;;;4.27;47.64;95144.27;1729638;83;20156;-72
2022/12/13 10:47:14;;;;;;;;;;;;;;;4.41;47.58;95138.59;1730045;83;20223;-72
2022/12/13 10:49:51;;;;;;;;;;;;;;;4.38;46.57;95141.62;1730651;83;20129;-73
2022/12/13 10:52:33;;;;;;;;;;;;;;;4.61;46.85;95142.45;1730673;83;20148;-73
2022/12/13 10:55:03;;;;;;;;;;;;;;;4.76;45.26;95137.59;1730907;83;20417;-73
2022/12/13 10:57:30;;;;;;;;;;;;;;;4.61;44.33;95138.95;1730534;83;20101;-73
2022/12/13 10:59:56;;;;;;;;;;;;;;;4.77;46.75;95144.13;1731076;83;20132;-72
2022/12/13 11:02:37;;;;;;;;;;;;;;;4.74;45.26;95138.06;1730856;83;20101;-73
2022/12/13 11:05:27;;;;;;;;;;;;;;;4.73;44.29;95138.47;1731107;83;20156;-73
2022/12/13 11:07:54;;;;;;;;;;;;;;;4.99;45.12;95132.30;1731458;83;20108;-73
2022/12/13 11:10:26;;;;;;;;;;;;;;;5.14;44.73;95126.09;1731191;83;20164;-73
2022/12/13 11:13:14;;;;;;;;;;;;;;;5.27;43.88;95120.39;1730739;83;20112;-73
2022/12/13 11:15:40;;;;;;;;;;;;;;;5.29;43.85;95128.66;1729923;83;20386;-73
2022/12/13 11:18:10;;;;;;;;;;;;;;;5.32;43.34;95126.47;1733943;83;20116;-73
2022/12/13 11:20:38;;;;;;;;;;;;;;;5.43;43.50;95127.25;1736827;82;20171;-73
2022/12/13 11:23:25;;;;;;;;;;;;;;;5.25;43.97;95123.00;1737435;83;20113;-73
2022/12/13 11:25:57;;;;;;;;;;;;;;;5.68;43.57;95121.41;1737425;82;20100;-74
2022/12/13 11:28:42;;;;;;;;;;;;;;;5.80;42.07;95120.02;1737218;82;20405;-73
2022/12/13 11:31:21;;;;;;;;;;;;;;;6.04;41.96;95123.34;1737636;82;20104;-74
2022/12/13 11:34:04;;;;;;;;;;;;;;;5.67;41.61;95120.10;1737379;82;20097;-74
2022/12/13 11:36:33;;;;;;;;;;;;;;;5.33;42.97;95115.97;1737312;82;20100;-74
2022/12/13 11:39:30;;;;;;;;;;;;;;;4.82;44.01;95122.34;1737321;83;20107;-74
2022/12/13 11:42:06;;;;;;;;;;;;;;;4.28;45.32;95122.08;1737257;82;20097;-74
2022/12/13 11:44:51;;;;;;;;;;;;;;;4.10;46.12;95129.47;1737382;83;20152;-73
2022/12/13 11:47:24;;;;;;;;;;;;;;;3.75;46.59;95127.32;1737173;82;20104;-72
2022/12/13 11:49:51;;;;;;;;;;;;;;;3.54;47.52;95129.05;1737152;82;20104;-72
2022/12/13 11:52:37;;;;;;;;;;;;;;;3.37;48.31;95129.02;1737417;83;20144;-71
2022/12/13 11:55:07;;;;;;;;;;;;;;;3.00;49.33;95130.70;1737077;83;20124;-70
2022/12/13 11:57:59;;;;;;;;;;;;;;;2.80;49.27;95126.72;1737185;82;20105;-70
2022/12/13 12:00:34;;;;;;;;;;;;;;;2.96;50.13;95126.33;1737296;82;20411;-71
2022/12/13 12:03:05;;;;;;;;;;;;;;;3.29;49.42;95121.63;1737759;83;20411;-71
2022/12/13 12:05:34;;;;;;;;;;;;;;;3.73;49.02;95122.13;1737386;82;20110;-71
2022/12/13 12:08:13;;;;;;;;;;;;;;;3.90;48.47;95123.40;1737256;82;20120;-71
2022/12/13 12:10:44;;;;;;;;;;;;;;;4.04;47.29;95125.58;1737131;83;20395;-71
2022/12/13 12:13:29;;;;;;;;;;;;;;;3.76;47.68;95129.08;1737216;83;20109;-71
2022/12/13 12:16:05;;;;;;;;;;;;;;;3.39;48.17;95136.86;1737295;82;20116;-71
2022/12/13 12:18:33;;;;;;;;;;;;;;;3.15;48.88;95135.95;1740197;82;20374;-71
2022/12/13 12:21:37;;;;;;;;;;;;;;;2.86;49.37;95142.36;1742821;82;20406;-70
2022/12/13 12:24:30;;;;;;;;;;;;;;;2.53;50.55;95151.77;1742953;82;20131;-72
2022/12/13 12:27:39;;;;;;;;;;;;;;;1.93;51.75;95149.22;1742980;82;20100;-71
2022/12/13 12:30:20;;;;;;;;;;;;;;;1.40;53.05;95152.24;1743091;82;20128;-70
2022/12/13 12:33:09;;;;;;;;;;;;;;;1.08;54.60;95162.77;1743072;82;20108;-71
2022/12/13 12:35:57;;;;;;;;;;;;;;;1.00;55.17;95166.12;1742554;82;20180;-70
2022/12/13 12:38:55;;;;;;;;;;;;;;;1.13;55.10;95164.09;1742577;82;20115;-70
2022/12/13 12:41:33;;;;;;;;;;;;;;;0.72;54.84;95167.09;1726731;82;20180;-70
2022/12/13 12:44:06;;;;;;;;;;;;;;;0.51;56.17;95170.73;1742930;82;20421;-70
2022/12/13 12:47:03;;;;;;;;;;;;;;;0.46;56.65;95170.67;1742512;82;20096;-71
2022/12/13 12:49:36;;;;;;;;;;;;;;;0.46;56.91;95176.29;1675935;85;20109;-70
2022/12/13 12:52:21;;;;;;;;;;;;;;;0.55;56.91;95169.47;1683715;85;20390;-71
2022/12/13 12:55:04;;;;;;;;;;;;;;;0.46;56.76;95173.70;1685379;85;20117;-70
2022/12/13 12:57:38;;;;;;;;;;;;;;;0.27;57.46;95170.83;1684539;85;20125;-70
2022/12/13 13:00:10;;;;;;;;;;;;;;;0.09;57.66;95176.63;1684773;85;20137;-70
2022/12/13 13:03:09;;;;;;;;;;;;;;;-0.15;58.59;95178.84;1685077;85;20439;-70
2022/12/13 13:05:42;;;;;;;;;;;;;;;-0.40;59.01;95178.86;1684516;85;20117;-70
2022/12/13 13:08:27;;;;;;;;;;;;;;;-0.60;59.46;95191.52;1685154;85;20105;-70
2022/12/13 13:10:56;;;;;;;;;;;;;;;-0.74;59.92;95187.36;1682258;85;20194;-70